Time;durP1;ratioP1;P1;durP2;ratioP2;P2;SDS_P1;SDS_P2;PMS_P1;PMS_P2;Temp;Humidity;BMP_temperature;BMP_pressure;BME280_temperature;BME280_humidity;BME280_pressure;Samples;Min_cycle;Max_cycle;Signal;HPM_P1;HPM_P2
2021/12/01 00:00:30;;;;;;;18.13;12.63;;;;;;;;;;4984004;28;92586;-69
2021/12/01 00:02:56;;;;;;;17.23;13.20;;;;;;;;;;5010747;28;96335;-69
2021/12/01 00:05:24;;;;;;;17.00;11.93;;;;;;;;;;5001477;28;94585;-69
2021/12/01 00:07:50;;;;;;;17.13;13.10;;;;;;;;;;5008622;28;93311;-69
2021/12/01 00:10:17;;;;;;;16.25;13.38;;;;;;;;;;5008861;28;95542;-69
2021/12/01 00:12:44;;;;;;;18.75;13.63;;;;;;;;;;4972406;28;92518;-68
2021/12/01 00:15:11;;;;;;;17.08;13.23;;;;;;;;;;5006930;28;94327;-69
2021/12/01 00:17:40;;;;;;;14.73;12.32;;;;;;;;;;5011335;28;93601;-69
2021/12/01 00:20:09;;;;;;;17.45;12.38;;;;;;;;;;4994839;28;93338;-68
2021/12/01 00:22:35;;;;;;;9.52;8.35;;;;;;;;;;5003831;28;93389;-68
2021/12/01 00:25:02;;;;;;;13.30;11.50;;;;;;;;;;5004216;28;94261;-68
2021/12/01 00:27:29;;;;;;;19.58;12.02;;;;;;;;;;5013371;28;94850;-68
2021/12/01 00:29:56;;;;;;;14.13;12.57;;;;;;;;;;5008644;28;94341;-68
2021/12/01 00:32:23;;;;;;;18.02;13.02;;;;;;;;;;4982456;28;93904;-68
2021/12/01 00:34:49;;;;;;;14.05;11.25;;;;;;;;;;5008014;28;94021;-69
2021/12/01 00:37:16;;;;;;;12.15;10.85;;;;;;;;;;5007824;27;93462;-69
2021/12/01 00:39:42;;;;;;;16.92;13.30;;;;;;;;;;4995852;28;93680;-68
2021/12/01 00:42:09;;;;;;;18.42;13.50;;;;;;;;;;5012340;28;94602;-69
2021/12/01 00:44:36;;;;;;;15.10;13.18;;;;;;;;;;5002116;28;92767;-68
2021/12/01 00:49:33;;;;;;;19.50;13.88;;;;;;;;;;5017989;28;93178;-68
2021/12/01 00:52:00;;;;;;;13.32;11.93;;;;;;;;;;5006363;28;95544;-69
2021/12/01 00:54:26;;;;;;;12.52;10.85;;;;;;;;;;5007936;28;95745;-69
2021/12/01 00:56:53;;;;;;;15.30;11.82;;;;;;;;;;5010785;28;93215;-69
2021/12/01 00:59:19;;;;;;;15.43;12.40;;;;;;;;;;5012943;28;92726;-68
2021/12/01 01:01:46;;;;;;;14.23;12.77;;;;;;;;;;5012515;28;92473;-68
2021/12/01 01:04:13;;;;;;;14.43;12.95;;;;;;;;;;5013487;28;93444;-69
2021/12/01 01:06:39;;;;;;;16.60;13.52;;;;;;;;;;5011968;28;93654;-69
2021/12/01 01:09:06;;;;;;;15.95;12.25;;;;;;;;;;5011734;28;93687;-69
2021/12/01 01:17:06;;;;;;;18.83;13.45;;;;;;;;;;5007711;28;96875;-68
2021/12/01 01:19:33;;;;;;;19.38;13.55;;;;;;;;;;5014807;28;92462;-69
2021/12/01 01:22:00;;;;;;;22.30;14.40;;;;;;;;;;5011402;28;92931;-69
2021/12/01 01:24:27;;;;;;;16.73;12.90;;;;;;;;;;5012096;28;94529;-68
2021/12/01 01:26:56;;;;;;;21.13;11.57;;;;;;;;;;5012141;28;92546;-69
2021/12/01 01:29:23;;;;;;;15.20;10.07;;;;;;;;;;5007413;28;94105;-69
2021/12/01 01:31:50;;;;;;;13.30;10.77;;;;;;;;;;5014572;28;94090;-69
2021/12/01 01:34:16;;;;;;;19.20;10.63;;;;;;;;;;5009174;28;92458;-69
2021/12/01 01:36:43;;;;;;;15.30;9.30;;;;;;;;;;4986736;28;93302;-69
2021/12/01 01:39:09;;;;;;;9.63;7.40;;;;;;;;;;5015265;28;92995;-69
2021/12/01 01:41:36;;;;;;;8.30;4.82;;;;;;;;;;5011362;28;94938;-69
2021/12/01 01:44:05;;;;;;;9.27;7.30;;;;;;;;;;5011519;28;94230;-69
2021/12/01 01:46:32;;;;;;;6.20;5.50;;;;;;;;;;5010307;28;93015;-70
2021/12/01 01:49:06;;;;;;;8.43;6.20;;;;;;;;;;5013762;28;93023;-69
2021/12/01 01:51:32;;;;;;;10.63;7.57;;;;;;;;;;4978876;28;93685;-69
2021/12/01 01:53:59;;;;;;;8.38;7.53;;;;;;;;;;4995108;28;93133;-69
2021/12/01 01:56:26;;;;;;;7.18;6.40;;;;;;;;;;5013163;28;93753;-69
2021/12/01 01:58:53;;;;;;;8.40;6.65;;;;;;;;;;5015237;28;91919;-69
2021/12/01 02:04:08;;;;;;;5.40;4.90;;;;;;;;;;5012098;28;94215;-69
2021/12/01 02:06:37;;;;;;;7.43;6.25;;;;;;;;;;5008065;28;95336;-69
2021/12/01 02:09:05;;;;;;;9.32;7.63;;;;;;;;;;5013895;28;95329;-69
2021/12/01 02:11:31;;;;;;;12.38;9.02;;;;;;;;;;5012939;28;94271;-69
2021/12/01 02:13:58;;;;;;;10.95;7.68;;;;;;;;;;5012296;28;94127;-69
2021/12/01 02:16:24;;;;;;;13.75;7.60;;;;;;;;;;5011709;28;93302;-69
2021/12/01 02:18:52;;;;;;;8.48;5.90;;;;;;;;;;5011909;28;93403;-69
2021/12/01 02:21:26;;;;;;;6.20;5.55;;;;;;;;;;5011662;28;93052;-69
2021/12/01 02:23:54;;;;;;;7.47;5.75;;;;;;;;;;5015043;28;92048;-69
2021/12/01 02:26:21;;;;;;;7.65;5.78;;;;;;;;;;5011559;28;93422;-69
2021/12/01 02:28:50;;;;;;;4.00;3.70;;;;;;;;;;5014893;28;93078;-69
2021/12/01 02:31:16;;;;;;;4.45;3.67;;;;;;;;;;5009847;28;96029;-70
2021/12/01 02:33:43;;;;;;;4.63;4.22;;;;;;;;;;5008392;28;92486;-70
2021/12/01 02:36:10;;;;;;;4.68;4.22;;;;;;;;;;5008441;28;92901;-69
2021/12/01 02:38:37;;;;;;;4.10;3.70;;;;;;;;;;5014645;28;94209;-70
2021/12/01 02:41:03;;;;;;;4.05;3.75;;;;;;;;;;5012630;28;93394;-70
2021/12/01 02:43:30;;;;;;;3.50;3.20;;;;;;;;;;5013768;28;93174;-70
2021/12/01 02:45:57;;;;;;;2.22;2.13;;;;;;;;;;5008731;28;92546;-69
2021/12/01 02:48:23;;;;;;;2.92;2.70;;;;;;;;;;5010500;28;92976;-69
2021/12/01 02:50:50;;;;;;;2.88;2.67;;;;;;;;;;5011610;28;94316;-69
2021/12/01 02:53:20;;;;;;;3.30;3.00;;;;;;;;;;4995361;28;93712;-69
2021/12/01 02:55:54;;;;;;;3.15;2.75;;;;;;;;;;5010152;28;95482;-69
2021/12/01 02:58:21;;;;;;;2.88;2.70;;;;;;;;;;5011576;28;94456;-69
2021/12/01 03:00:48;;;;;;;4.00;3.05;;;;;;;;;;5016746;28;92489;-69
2021/12/01 03:03:15;;;;;;;3.22;2.97;;;;;;;;;;5009143;28;94303;-70
2021/12/01 03:05:45;;;;;;;3.63;3.42;;;;;;;;;;5007475;28;94281;-69
2021/12/01 03:08:13;;;;;;;4.07;3.70;;;;;;;;;;5010767;28;94651;-69
2021/12/01 03:10:39;;;;;;;4.50;4.15;;;;;;;;;;5013679;28;94658;-71
2021/12/01 03:13:06;;;;;;;6.00;4.40;;;;;;;;;;5012322;28;91999;-70
2021/12/01 03:15:32;;;;;;;6.40;4.60;;;;;;;;;;4980283;28;93549;-69
2021/12/01 03:18:00;;;;;;;4.28;3.92;;;;;;;;;;5011905;28;95585;-70
2021/12/01 03:20:26;;;;;;;5.03;4.57;;;;;;;;;;5006251;28;96984;-69
2021/12/01 03:22:52;;;;;;;4.55;4.13;;;;;;;;;;5013376;28;95436;-69
2021/12/01 03:25:19;;;;;;;5.00;4.57;;;;;;;;;;5010128;28;92935;-69
2021/12/01 03:27:45;;;;;;;3.78;3.55;;;;;;;;;;4998619;28;94200;-69
2021/12/01 03:30:12;;;;;;;4.13;3.83;;;;;;;;;;4992111;28;95848;-69
2021/12/01 03:32:39;;;;;;;4.03;3.75;;;;;;;;;;5013371;28;92481;-69
2021/12/01 03:35:10;;;;;;;4.30;3.45;;;;;;;;;;5008543;28;94452;-69
2021/12/01 03:37:37;;;;;;;3.53;3.33;;;;;;;;;;4996988;28;93369;-69
2021/12/01 03:40:09;;;;;;;3.60;3.40;;;;;;;;;;5011157;28;92504;-69
2021/12/01 03:42:36;;;;;;;3.55;3.28;;;;;;;;;;5003777;28;93985;-69
2021/12/01 03:45:03;;;;;;;3.80;3.60;;;;;;;;;;5014475;28;95568;-69
2021/12/01 03:47:29;;;;;;;3.53;3.22;;;;;;;;;;5010994;28;95499;-69
2021/12/01 03:49:56;;;;;;;3.75;3.47;;;;;;;;;;5010356;28;92451;-70
2021/12/01 03:52:23;;;;;;;3.97;3.67;;;;;;;;;;5009201;28;94323;-70
2021/12/01 03:54:52;;;;;;;3.65;3.45;;;;;;;;;;5010557;28;93070;-70
2021/12/01 03:57:19;;;;;;;3.53;3.28;;;;;;;;;;5000875;28;93200;-70
2021/12/01 03:59:45;;;;;;;4.78;3.80;;;;;;;;;;5011252;28;92601;-71
2021/12/01 04:02:14;;;;;;;3.97;3.72;;;;;;;;;;5011207;28;93010;-70
2021/12/01 04:04:41;;;;;;;3.95;3.65;;;;;;;;;;5012404;28;94366;-70
2021/12/01 04:07:07;;;;;;;10.30;4.13;;;;;;;;;;5016119;28;92843;-70
2021/12/01 04:09:34;;;;;;;4.28;3.97;;;;;;;;;;5002789;28;95842;-70
2021/12/01 04:12:00;;;;;;;4.20;3.90;;;;;;;;;;5007027;28;92445;-70
2021/12/01 04:14:27;;;;;;;4.85;4.45;;;;;;;;;;5008738;28;94322;-70
2021/12/01 04:16:53;;;;;;;3.92;3.63;;;;;;;;;;5012115;28;94213;-70
2021/12/01 04:19:19;;;;;;;4.90;4.50;;;;;;;;;;5008507;28;92476;-70
2021/12/01 04:21:46;;;;;;;4.65;4.43;;;;;;;;;;5013096;28;93229;-70
2021/12/01 04:24:12;;;;;;;5.22;4.88;;;;;;;;;;5006766;28;94251;-70
2021/12/01 04:26:39;;;;;;;4.03;3.83;;;;;;;;;;5007349;28;93152;-70
2021/12/01 04:29:06;;;;;;;4.95;4.60;;;;;;;;;;4991838;28;94120;-70
2021/12/01 04:31:36;;;;;;;4.75;4.47;;;;;;;;;;4993201;28;92964;-71
2021/12/01 04:34:03;;;;;;;3.80;3.50;;;;;;;;;;4991189;28;95015;-70
2021/12/01 04:36:36;;;;;;;4.80;4.40;;;;;;;;;;4998764;28;94128;-69
2021/12/01 04:39:04;;;;;;;4.88;4.43;;;;;;;;;;4992458;28;92778;-69
2021/12/01 04:41:36;;;;;;;4.45;4.25;;;;;;;;;;5003182;28;93900;-69
2021/12/01 04:44:08;;;;;;;4.55;4.35;;;;;;;;;;5012500;28;92339;-69
2021/12/01 04:46:40;;;;;;;5.97;5.67;;;;;;;;;;5009695;28;92699;-69
2021/12/01 04:49:08;;;;;;;5.18;4.88;;;;;;;;;;5015395;28;93901;-69
2021/12/01 04:51:35;;;;;;;6.20;5.90;;;;;;;;;;4996071;28;91721;-69
2021/12/01 04:54:02;;;;;;;7.03;6.63;;;;;;;;;;4993824;27;92482;-69
2021/12/01 04:56:29;;;;;;;8.23;7.72;;;;;;;;;;5003905;28;94201;-70
2021/12/01 04:58:56;;;;;;;7.38;6.90;;;;;;;;;;5007431;28;95292;-69
2021/12/01 05:01:22;;;;;;;6.97;6.57;;;;;;;;;;4993458;28;94466;-70
2021/12/01 05:03:49;;;;;;;7.88;7.28;;;;;;;;;;5005795;28;93402;-70
2021/12/01 05:06:16;;;;;;;8.07;7.57;;;;;;;;;;4997583;28;92471;-69
2021/12/01 05:08:42;;;;;;;8.35;7.65;;;;;;;;;;5004050;28;93916;-69
2021/12/01 05:11:09;;;;;;;5.78;5.47;;;;;;;;;;5013104;28;94234;-69
2021/12/01 05:13:35;;;;;;;5.60;5.18;;;;;;;;;;5004459;28;95804;-70
2021/12/01 05:16:02;;;;;;;5.60;5.30;;;;;;;;;;5012164;28;93434;-69
2021/12/01 05:18:28;;;;;;;3.80;3.60;;;;;;;;;;5010013;28;92543;-69
2021/12/01 05:20:54;;;;;;;4.28;3.88;;;;;;;;;;5009580;28;93116;-69
2021/12/01 05:23:21;;;;;;;4.03;3.80;;;;;;;;;;5007577;28;95963;-69
2021/12/01 05:25:47;;;;;;;4.38;4.07;;;;;;;;;;5012159;28;92876;-68
2021/12/01 05:28:14;;;;;;;4.20;4.00;;;;;;;;;;5007348;28;93928;-69
2021/12/01 05:30:40;;;;;;;3.97;3.67;;;;;;;;;;5011988;28;93600;-69
2021/12/01 05:33:10;;;;;;;4.18;3.97;;;;;;;;;;5016142;28;93078;-69
2021/12/01 05:35:42;;;;;;;4.05;3.85;;;;;;;;;;5011015;28;93918;-69
2021/12/01 05:38:11;;;;;;;5.07;4.82;;;;;;;;;;5002645;28;92918;-69
2021/12/01 05:40:37;;;;;;;4.50;4.30;;;;;;;;;;5015692;28;93836;-68
2021/12/01 05:43:03;;;;;;;4.38;4.07;;;;;;;;;;5012199;28;94355;-68
2021/12/01 05:45:30;;;;;;;5.13;4.60;;;;;;;;;;5008901;28;92531;-68
2021/12/01 05:47:56;;;;;;;4.93;4.63;;;;;;;;;;5012236;28;94964;-68
2021/12/01 05:50:23;;;;;;;4.85;4.50;;;;;;;;;;4993447;28;93300;-69
2021/12/01 05:52:49;;;;;;;4.50;4.20;;;;;;;;;;5007566;28;92559;-69
2021/12/01 05:55:16;;;;;;;5.47;5.18;;;;;;;;;;5014295;28;93081;-69
2021/12/01 05:57:42;;;;;;;5.05;4.80;;;;;;;;;;5014970;28;92467;-69
2021/12/01 06:00:10;;;;;;;6.10;5.80;;;;;;;;;;5009492;28;93933;-69
2021/12/01 06:02:37;;;;;;;4.85;4.65;;;;;;;;;;5011051;28;94271;-69
2021/12/01 06:05:04;;;;;;;6.32;5.97;;;;;;;;;;5015123;28;91781;-70
2021/12/01 06:07:31;;;;;;;5.82;5.43;;;;;;;;;;5010545;28;92939;-69
2021/12/01 06:10:02;;;;;;;6.60;6.20;;;;;;;;;;5013068;28;93366;-69
2021/12/01 06:12:29;;;;;;;6.65;6.25;;;;;;;;;;5010956;28;94990;-69
2021/12/01 06:14:56;;;;;;;7.18;6.63;;;;;;;;;;5016619;28;95785;-69
2021/12/01 06:17:22;;;;;;;7.60;7.10;;;;;;;;;;5008145;28;92993;-70
2021/12/01 06:19:49;;;;;;;5.68;5.32;;;;;;;;;;5012462;28;93856;-69
2021/12/01 06:22:15;;;;;;;6.70;6.22;;;;;;;;;;5011122;28;94258;-69
2021/12/01 06:24:41;;;;;;;7.20;6.70;;;;;;;;;;5013860;28;92437;-69
2021/12/01 06:27:08;;;;;;;8.88;8.23;;;;;;;;;;5012245;28;93714;-69
2021/12/01 06:29:34;;;;;;;10.68;9.85;;;;;;;;;;5000744;28;93110;-69
2021/12/01 06:32:03;;;;;;;8.65;8.00;;;;;;;;;;4998329;28;92478;-69
2021/12/01 06:34:30;;;;;;;7.85;7.40;;;;;;;;;;5005112;28;93783;-69
2021/12/01 06:36:56;;;;;;;7.20;6.80;;;;;;;;;;5007907;28;96688;-69
2021/12/01 06:39:22;;;;;;;6.25;5.35;;;;;;;;;;5013276;28;96945;-69
2021/12/01 06:41:49;;;;;;;6.43;5.93;;;;;;;;;;5012663;28;94047;-69
2021/12/01 06:44:15;;;;;;;6.88;6.38;;;;;;;;;;5013977;28;92567;-69
2021/12/01 06:46:42;;;;;;;5.80;5.45;;;;;;;;;;5011753;28;93974;-69
2021/12/01 06:49:08;;;;;;;5.90;5.45;;;;;;;;;;5008280;28;94276;-69
2021/12/01 06:51:34;;;;;;;6.30;5.80;;;;;;;;;;5007618;28;93086;-69
2021/12/01 06:54:01;;;;;;;5.35;5.00;;;;;;;;;;4994516;28;92881;-69
2021/12/01 06:56:27;;;;;;;5.30;4.90;;;;;;;;;;4993456;28;94297;-69
2021/12/01 06:58:53;;;;;;;6.65;6.10;;;;;;;;;;5008468;28;92621;-69
2021/12/01 07:01:20;;;;;;;6.45;6.05;;;;;;;;;;5009323;28;96632;-69
2021/12/01 07:03:47;;;;;;;7.38;6.78;;;;;;;;;;5009074;28;93142;-69
2021/12/01 07:06:13;;;;;;;7.07;6.50;;;;;;;;;;5007344;28;93032;-69
2021/12/01 07:08:39;;;;;;;7.70;7.00;;;;;;;;;;4993522;28;93562;-69
2021/12/01 07:11:06;;;;;;;7.20;6.70;;;;;;;;;;5001232;28;92953;-69
2021/12/01 07:13:35;;;;;;;8.13;7.50;;;;;;;;;;5010432;28;92953;-69
2021/12/01 07:16:04;;;;;;;7.85;7.22;;;;;;;;;;4992627;28;94251;-70
2021/12/01 07:18:30;;;;;;;8.43;7.72;;;;;;;;;;5010364;28;91834;-69
2021/12/01 07:20:57;;;;;;;7.40;6.75;;;;;;;;;;4997462;28;93236;-69
2021/12/01 07:23:23;;;;;;;6.50;5.90;;;;;;;;;;4996127;28;92654;-69
2021/12/01 07:25:58;;;;;;;8.48;7.13;;;;;;;;;;4972186;28;94855;-70
2021/12/01 07:28:25;;;;;;;8.07;7.28;;;;;;;;;;4988887;28;93873;-69
2021/12/01 07:30:51;;;;;;;8.88;7.60;;;;;;;;;;4976478;28;92508;-69
2021/12/01 07:33:18;;;;;;;8.05;6.07;;;;;;;;;;4992462;28;94276;-69
2021/12/01 07:35:45;;;;;;;6.90;6.30;;;;;;;;;;4989064;28;94176;-69
2021/12/01 07:38:13;;;;;;;6.72;5.80;;;;;;;;;;4998113;28;94080;-69
2021/12/01 07:40:39;;;;;;;6.15;5.43;;;;;;;;;;4991554;28;93313;-70
2021/12/01 07:43:05;;;;;;;6.40;5.88;;;;;;;;;;4999168;28;91881;-69
2021/12/01 07:45:32;;;;;;;6.07;5.47;;;;;;;;;;4992942;28;93223;-69
2021/12/01 07:47:58;;;;;;;5.47;4.97;;;;;;;;;;5009723;28;94224;-69
2021/12/01 07:50:25;;;;;;;6.70;6.18;;;;;;;;;;5010574;28;94833;-69
2021/12/01 07:52:51;;;;;;;7.43;5.68;;;;;;;;;;5001335;28;94328;-69
2021/12/01 07:55:18;;;;;;;10.40;5.32;;;;;;;;;;5009974;28;94729;-68
2021/12/01 07:57:46;;;;;;;5.18;4.68;;;;;;;;;;4998450;28;92530;-68
2021/12/01 08:00:13;;;;;;;5.80;5.40;;;;;;;;;;4997296;28;94270;-68
2021/12/01 08:02:39;;;;;;;7.10;5.80;;;;;;;;;;4991139;28;94384;-70
2021/12/01 08:05:06;;;;;;;8.80;5.40;;;;;;;;;;4999090;28;92594;-69
2021/12/01 08:07:35;;;;;;;9.90;5.15;;;;;;;;;;5009054;28;93493;-69
2021/12/01 08:10:04;;;;;;;9.63;5.85;;;;;;;;;;5009489;28;92438;-69
2021/12/01 08:12:33;;;;;;;13.25;6.25;;;;;;;;;;5003358;28;93957;-69
2021/12/01 08:15:01;;;;;;;10.82;5.93;;;;;;;;;;4994846;28;95854;-70
2021/12/01 08:17:27;;;;;;;8.95;5.65;;;;;;;;;;4997015;28;92579;-69
2021/12/01 08:19:53;;;;;;;9.80;5.95;;;;;;;;;;4989894;28;93097;-69
2021/12/01 08:22:20;;;;;;;9.57;6.10;;;;;;;;;;4997328;28;93578;-69
2021/12/01 08:24:46;;;;;;;10.15;6.65;;;;;;;;;;4976342;28;92984;-69
2021/12/01 08:27:13;;;;;;;13.85;6.85;;;;;;;;;;5003421;28;93861;-68
2021/12/01 08:29:40;;;;;;;18.23;5.90;;;;;;;;;;4992870;28;92574;-68
2021/12/01 08:32:06;;;;;;;3.63;2.28;;;;;;;;;;5007014;28;93836;-69
2021/12/01 08:34:33;;;;;;;5.03;1.88;;;;;;;;;;5012335;28;93393;-69
2021/12/01 08:36:59;;;;;;;7.63;2.00;;;;;;;;;;5012126;28;92504;-69
2021/12/01 08:39:25;;;;;;;8.20;2.33;;;;;;;;;;4991482;28;96495;-68
2021/12/01 08:41:52;;;;;;;7.80;2.15;;;;;;;;;;4991657;28;93487;-68
2021/12/01 08:44:18;;;;;;;12.68;1.90;;;;;;;;;;4990114;28;92719;-70
2021/12/01 08:46:44;;;;;;;9.43;2.10;;;;;;;;;;4991975;28;94127;-69
2021/12/01 08:49:13;;;;;;;11.45;2.33;;;;;;;;;;4992924;28;94175;-69
2021/12/01 08:51:39;;;;;;;16.48;2.55;;;;;;;;;;4992394;28;93766;-69
2021/12/01 08:54:13;;;;;;;15.27;2.42;;;;;;;;;;4986875;28;94244;-69
2021/12/01 08:56:40;;;;;;;11.55;1.77;;;;;;;;;;4991347;28;93354;-69
2021/12/01 08:59:07;;;;;;;13.23;2.70;;;;;;;;;;4993427;28;93449;-69
2021/12/01 09:01:33;;;;;;;13.85;2.53;;;;;;;;;;4992505;28;94046;-69
2021/12/01 09:04:00;;;;;;;4.45;2.00;;;;;;;;;;4992588;28;95847;-69
2021/12/01 09:06:27;;;;;;;8.60;2.60;;;;;;;;;;5001322;28;96315;-70
2021/12/01 09:08:54;;;;;;;15.73;2.13;;;;;;;;;;5007422;28;94453;-69
2021/12/01 09:11:20;;;;;;;12.50;2.58;;;;;;;;;;4991105;28;96007;-69
2021/12/01 09:13:47;;;;;;;9.32;2.08;;;;;;;;;;4995881;28;94339;-69
2021/12/01 09:16:21;;;;;;;7.03;1.48;;;;;;;;;;4993027;28;92980;-70
2021/12/01 09:18:48;;;;;;;9.32;1.85;;;;;;;;;;4995826;28;94178;-69
2021/12/01 09:21:14;;;;;;;17.30;2.53;;;;;;;;;;4993999;28;93774;-69
2021/12/01 09:23:41;;;;;;;6.28;2.10;;;;;;;;;;4998295;28;92816;-69
2021/12/01 09:26:08;;;;;;;9.40;1.80;;;;;;;;;;4994595;28;94294;-69
2021/12/01 09:28:34;;;;;;;8.18;1.50;;;;;;;;;;4993692;28;96882;-69
2021/12/01 09:31:00;;;;;;;5.80;2.08;;;;;;;;;;5000702;28;92908;-69
2021/12/01 09:33:29;;;;;;;10.40;1.77;;;;;;;;;;4994293;28;93996;-69
2021/12/01 09:35:56;;;;;;;15.02;2.67;;;;;;;;;;4991654;28;92556;-69
2021/12/01 09:38:23;;;;;;;9.45;1.98;;;;;;;;;;4997413;28;93764;-69
2021/12/01 09:40:51;;;;;;;8.88;1.83;;;;;;;;;;4989685;28;94928;-69
2021/12/01 09:43:19;;;;;;;7.32;1.70;;;;;;;;;;4994396;28;93614;-68
2021/12/01 09:45:46;;;;;;;11.15;2.17;;;;;;;;;;4995699;28;93900;-68
2021/12/01 09:48:12;;;;;;;8.02;1.50;;;;;;;;;;4994569;28;93433;-68
2021/12/01 09:50:39;;;;;;;15.18;1.60;;;;;;;;;;4995716;28;93260;-69
2021/12/01 09:53:05;;;;;;;6.70;1.27;;;;;;;;;;4990540;28;95810;-69
2021/12/01 09:55:32;;;;;;;5.22;1.48;;;;;;;;;;4994847;28;93240;-69
2021/12/01 09:58:10;;;;;;;4.65;1.48;;;;;;;;;;5005192;28;94301;-69
2021/12/01 10:00:41;;;;;;;5.57;1.63;;;;;;;;;;5000411;28;93117;-69
2021/12/01 10:03:08;;;;;;;9.98;1.63;;;;;;;;;;4998625;28;94168;-69
2021/12/01 10:05:51;;;;;;;9.73;1.63;;;;;;;;;;4992549;28;92595;-69
2021/12/01 10:08:18;;;;;;;;;;;;;;;;;;4984375;28;94401;-69
2021/12/01 10:10:45;;;;;;;5.32;1.25;;;;;;;;;;4993515;28;116360;-69
2021/12/01 10:13:11;;;;;;;11.02;2.05;;;;;;;;;;4995799;28;94895;-69
2021/12/01 10:15:38;;;;;;;6.35;1.40;;;;;;;;;;4996058;28;93515;-69
2021/12/01 10:18:15;;;;;;;8.50;1.38;;;;;;;;;;4995027;28;96555;-69
2021/12/01 10:20:55;;;;;;;9.30;2.25;;;;;;;;;;4995206;28;94003;-68
2021/12/01 10:23:21;;;;;;;10.52;1.90;;;;;;;;;;4998140;28;94116;-68
2021/12/01 10:25:49;;;;;;;5.63;1.30;;;;;;;;;;4992565;28;94647;-68
2021/12/01 10:28:35;;;;;;;8.38;1.77;;;;;;;;;;5004279;28;93883;-69
2021/12/01 10:31:01;;;;;;;18.20;1.77;;;;;;;;;;4992879;28;92521;-69
2021/12/01 10:33:28;;;;;;;6.28;1.60;;;;;;;;;;4994128;28;94034;-69
2021/12/01 10:35:59;;;;;;;9.52;2.22;;;;;;;;;;5004957;28;93979;-67
2021/12/01 10:38:29;;;;;;;11.43;2.25;;;;;;;;;;4993509;28;92953;-70
2021/12/01 10:41:22;;;;;;;10.23;2.20;;;;;;;;;;4996070;28;94047;-68
2021/12/01 10:43:49;;;;;;;8.38;1.50;;;;;;;;;;4986721;28;94944;-69
2021/12/01 10:46:16;;;;;;;6.90;1.85;;;;;;;;;;4995338;28;96412;-68
2021/12/01 10:48:58;;;;;;;12.70;1.52;;;;;;;;;;4991872;28;93418;-68
2021/12/01 10:51:32;;;;;;;12.02;2.03;;;;;;;;;;4993038;28;93467;-68
2021/12/01 10:53:59;;;;;;;6.28;1.98;;;;;;;;;;4987003;28;94331;-69
2021/12/01 10:56:25;;;;;;;7.68;1.70;;;;;;;;;;4984083;28;94271;-68
2021/12/01 10:58:52;;;;;;;8.63;2.30;;;;;;;;;;4993539;28;92731;-69
2021/12/01 11:01:19;;;;;;;12.55;2.05;;;;;;;;;;4992586;28;92690;-70
2021/12/01 11:03:47;;;;;;;11.73;1.90;;;;;;;;;;4995721;28;93653;-69
2021/12/01 11:06:23;;;;;;;10.95;2.33;;;;;;;;;;4995017;28;93396;-69
2021/12/01 11:08:59;;;;;;;8.45;2.05;;;;;;;;;;4985885;28;96262;-69
2021/12/01 11:11:38;;;;;;;6.35;2.25;;;;;;;;;;4992532;28;94044;-69
2021/12/01 11:14:25;;;;;;;11.23;2.45;;;;;;;;;;4991816;28;93902;-68
2021/12/01 11:16:51;;;;;;;8.90;1.80;;;;;;;;;;4991345;28;94132;-68
2021/12/01 11:19:30;;;;;;;10.55;2.70;;;;;;;;;;4996906;28;92514;-68
2021/12/01 11:22:17;;;;;;;10.45;2.60;;;;;;;;;;4993390;28;92855;-69
2021/12/01 11:24:44;;;;;;;9.65;2.10;;;;;;;;;;4984814;28;92925;-69
2021/12/01 11:27:11;;;;;;;11.90;1.92;;;;;;;;;;4991620;28;93507;-68
2021/12/01 11:29:53;;;;;;;12.57;2.40;;;;;;;;;;4992253;28;93753;-69
2021/12/01 11:32:19;;;;;;;7.55;2.13;;;;;;;;;;4990828;28;92697;-68
2021/12/01 11:34:48;;;;;;;12.35;2.17;;;;;;;;;;4984188;28;94992;-68
2021/12/01 11:37:14;;;;;;;10.73;3.00;;;;;;;;;;4997185;28;94002;-68
2021/12/01 11:39:41;;;;;;;8.57;1.98;;;;;;;;;;5002707;28;92568;-69
2021/12/01 11:42:07;;;;;;;10.57;2.25;;;;;;;;;;5006604;28;93490;-69
2021/12/01 11:44:34;;;;;;;14.57;3.75;;;;;;;;;;4991995;28;94250;-68
2021/12/01 11:47:00;;;;;;;19.50;2.55;;;;;;;;;;4992899;28;93580;-68
2021/12/01 11:49:28;;;;;;;7.25;1.80;;;;;;;;;;4992009;28;93018;-70
2021/12/01 11:52:04;;;;;;;10.50;2.53;;;;;;;;;;4992219;28;92461;-69
2021/12/01 11:54:33;;;;;;;10.70;2.03;;;;;;;;;;4986778;28;92827;-68
2021/12/01 11:57:04;;;;;;;11.38;2.30;;;;;;;;;;4998923;28;93641;-69
2021/12/01 11:59:32;;;;;;;10.57;2.65;;;;;;;;;;4992385;28;95901;-69
2021/12/01 12:02:19;;;;;;;11.25;2.33;;;;;;;;;;4983729;28;95318;-69
2021/12/01 12:04:47;;;;;;;8.68;2.05;;;;;;;;;;4989520;28;94185;-69
2021/12/01 12:07:25;;;;;;;14.85;2.75;;;;;;;;;;4993305;27;94033;-69
2021/12/01 12:10:03;;;;;;;12.20;2.60;;;;;;;;;;4991161;28;94241;-69
2021/12/01 12:12:45;;;;;;;11.90;2.55;;;;;;;;;;4993339;28;94187;-69
2021/12/01 12:15:31;;;;;;;13.50;2.10;;;;;;;;;;4995998;28;93862;-69
2021/12/01 12:17:57;;;;;;;15.23;2.65;;;;;;;;;;4994421;28;92070;-69
2021/12/01 12:20:28;;;;;;;13.32;2.35;;;;;;;;;;4991263;28;94027;-69
2021/12/01 12:22:55;;;;;;;5.13;2.00;;;;;;;;;;4989004;28;94107;-69
2021/12/01 12:25:36;;;;;;;9.57;2.80;;;;;;;;;;4988197;28;96029;-69
2021/12/01 12:28:20;;;;;;;12.20;2.47;;;;;;;;;;4989750;28;94538;-70
2021/12/01 12:30:47;;;;;;;11.68;2.28;;;;;;;;;;4996390;28;93273;-70
2021/12/01 12:33:15;;;;;;;8.57;1.80;;;;;;;;;;4989708;28;92586;-69
2021/12/01 12:35:43;;;;;;;11.43;2.00;;;;;;;;;;4990878;28;93951;-70
2021/12/01 12:38:11;;;;;;;8.75;2.05;;;;;;;;;;4995586;28;93392;-69
2021/12/01 12:40:38;;;;;;;9.60;2.40;;;;;;;;;;4996357;28;92570;-69
2021/12/01 12:43:13;;;;;;;5.85;1.67;;;;;;;;;;4993806;28;93059;-70
2021/12/01 12:45:41;;;;;;;11.20;2.35;;;;;;;;;;4997046;28;93473;-70
2021/12/01 12:48:22;;;;;;;12.23;2.25;;;;;;;;;;4992142;28;93422;-70
2021/12/01 12:51:07;;;;;;;9.60;2.60;;;;;;;;;;4995752;28;96269;-70
2021/12/01 12:53:36;;;;;;;9.75;1.80;;;;;;;;;;4992563;28;93053;-69
2021/12/01 12:56:21;;;;;;;18.75;2.38;;;;;;;;;;4994042;28;94100;-70
2021/12/01 12:58:48;;;;;;;7.90;1.40;;;;;;;;;;4990697;28;93230;-70
2021/12/01 13:01:24;;;;;;;15.43;2.40;;;;;;;;;;4996201;28;94600;-70
2021/12/01 13:03:52;;;;;;;10.80;2.33;;;;;;;;;;4994453;28;94030;-69
2021/12/01 13:06:26;;;;;;;8.93;2.20;;;;;;;;;;4993876;28;95125;-69
2021/12/01 13:08:53;;;;;;;10.13;2.55;;;;;;;;;;4997107;28;91796;-69
2021/12/01 13:11:20;;;;;;;8.23;1.90;;;;;;;;;;4997172;28;93221;-69
2021/12/01 13:13:51;;;;;;;11.05;2.13;;;;;;;;;;4999601;28;93932;-69
2021/12/01 13:16:18;;;;;;;16.85;2.83;;;;;;;;;;4989598;28;96631;-69
2021/12/01 13:18:45;;;;;;;11.80;2.30;;;;;;;;;;4997063;28;93827;-69
2021/12/01 13:21:19;;;;;;;4.85;1.48;;;;;;;;;;4997466;28;93038;-69
2021/12/01 13:23:46;;;;;;;14.13;2.90;;;;;;;;;;4999924;28;94080;-69
2021/12/01 13:26:14;;;;;;;11.63;2.42;;;;;;;;;;4993704;28;94083;-70
2021/12/01 13:28:53;;;;;;;16.30;2.92;;;;;;;;;;5000919;28;92558;-70
2021/12/01 13:31:24;;;;;;;14.27;2.90;;;;;;;;;;5006206;28;92500;-69
2021/12/01 13:33:58;;;;;;;12.70;2.45;;;;;;;;;;4994004;28;95641;-70
2021/12/01 13:36:25;;;;;;;18.20;3.95;;;;;;;;;;4997434;28;92849;-69
2021/12/01 13:38:56;;;;;;;10.18;2.53;;;;;;;;;;4975306;28;94311;-69
2021/12/01 13:41:23;;;;;;;12.43;2.85;;;;;;;;;;4986622;28;94883;-69
2021/12/01 13:43:49;;;;;;;13.60;2.60;;;;;;;;;;4975302;28;96476;-69
2021/12/01 13:46:17;;;;;;;11.32;3.00;;;;;;;;;;4974769;28;93382;-69
2021/12/01 13:48:50;;;;;;;10.07;2.42;;;;;;;;;;4986211;28;92761;-69
2021/12/01 13:51:17;;;;;;;10.88;2.30;;;;;;;;;;4978017;28;94249;-69
2021/12/01 13:53:43;;;;;;;15.40;2.95;;;;;;;;;;4992879;28;96434;-68
2021/12/01 13:56:11;;;;;;;13.05;2.13;;;;;;;;;;4995581;28;92705;-69
2021/12/01 13:58:38;;;;;;;12.35;3.03;;;;;;;;;;5006022;28;93682;-68
2021/12/01 14:01:12;;;;;;;11.40;3.10;;;;;;;;;;5006995;28;93017;-68
2021/12/01 14:03:40;;;;;;;6.77;2.00;;;;;;;;;;4994749;28;94308;-69
2021/12/01 14:06:10;;;;;;;8.50;2.08;;;;;;;;;;4990806;28;97015;-68
2021/12/01 14:08:40;;;;;;;7.95;2.00;;;;;;;;;;4993645;28;92789;-67
2021/12/01 14:11:16;;;;;;;14.38;2.67;;;;;;;;;;4993415;28;94108;-68
2021/12/01 14:13:45;;;;;;;21.85;3.50;;;;;;;;;;4995921;28;94329;-68
2021/12/01 14:16:12;;;;;;;15.13;2.70;;;;;;;;;;4993929;28;93291;-69
2021/12/01 14:18:38;;;;;;;13.55;2.60;;;;;;;;;;4995669;28;92818;-69
2021/12/01 14:21:12;;;;;;;12.13;2.85;;;;;;;;;;4991282;28;94497;-69
2021/12/01 14:23:38;;;;;;;8.30;1.98;;;;;;;;;;4975471;28;93236;-68
2021/12/01 14:26:05;;;;;;;14.07;2.50;;;;;;;;;;4988062;28;94400;-68
2021/12/01 14:28:32;;;;;;;11.77;2.72;;;;;;;;;;4993056;28;93360;-68
2021/12/01 14:31:02;;;;;;;10.63;2.78;;;;;;;;;;4993229;28;94955;-67
2021/12/01 14:33:32;;;;;;;9.40;1.88;;;;;;;;;;4994320;28;94704;-68
2021/12/01 14:36:06;;;;;;;19.42;3.05;;;;;;;;;;4994009;28;92495;-69
2021/12/01 14:38:33;;;;;;;10.13;2.33;;;;;;;;;;4976007;28;94010;-69
2021/12/01 14:41:09;;;;;;;10.68;2.10;;;;;;;;;;4991998;28;94027;-69
2021/12/01 14:43:36;;;;;;;10.45;2.50;;;;;;;;;;4997747;28;93311;-68
2021/12/01 14:46:16;;;;;;;15.35;3.13;;;;;;;;;;4996474;28;94146;-68
2021/12/01 14:48:42;;;;;;;12.73;2.40;;;;;;;;;;4998309;28;92563;-69
2021/12/01 14:51:08;;;;;;;19.55;3.05;;;;;;;;;;4994559;28;94909;-69
2021/12/01 14:53:38;;;;;;;7.50;2.25;;;;;;;;;;4993171;28;93319;-69